Time;durP1;ratioP1;P1;durP2;ratioP2;P2;SDS_P1;SDS_P2;PMS_P1;PMS_P2;Temp;Humidity;BMP_temperature;BMP_pressure;BME280_temperature;BME280_humidity;BME280_pressure;Samples;Min_cycle;Max_cycle;Signal;HPM_P1;HPM_P2
2022/09/23 00:00:03;;;;;;;3.40;3.20;;;;;;;12.67;76.64;101790.63;5056708;28;20402;-89
2022/09/23 00:02:34;;;;;;;3.10;2.90;;;;;;;12.65;76.59;101789.81;5073264;28;20040;-89
2022/09/23 00:05:04;;;;;;;3.60;3.30;;;;;;;12.64;76.35;101791.59;5057961;28;20055;-89
2022/09/23 00:07:33;;;;;;;3.42;3.13;;;;;;;12.65;76.26;101789.81;5074423;28;20308;-89
2022/09/23 00:10:03;;;;;;;3.70;3.40;;;;;;;12.64;76.20;101790.72;5057862;28;20048;-89
2022/09/23 00:12:33;;;;;;;3.17;2.88;;;;;;;12.63;76.35;101784.63;5057153;28;20301;-89
2022/09/23 00:15:07;;;;;;;2.88;2.67;;;;;;;12.62;76.36;101782.88;5054198;28;20059;-89
2022/09/23 00:17:40;;;;;;;3.58;2.72;;;;;;;12.61;76.60;101782.97;5058305;28;20048;-89
2022/09/23 00:20:10;;;;;;;3.15;2.95;;;;;;;12.60;76.50;101775.97;5057306;28;20036;-89
2022/09/23 00:22:39;;;;;;;4.10;3.47;;;;;;;12.59;76.26;101776.91;5058630;28;20336;-89
2022/09/23 00:25:09;;;;;;;3.80;3.22;;;;;;;12.57;76.59;101779.59;5074213;28;20296;-89
2022/09/23 00:27:40;;;;;;;3.28;3.08;;;;;;;12.57;76.61;101773.44;5075755;28;20028;-89
2022/09/23 00:30:08;;;;;;;3.50;3.20;;;;;;;12.56;76.79;101777.00;5024819;28;20037;-89
2022/09/23 00:32:39;;;;;;;3.00;2.80;;;;;;;12.54;76.35;101769.16;5056804;28;20051;-89
2022/09/23 00:35:07;;;;;;;2.97;2.78;;;;;;;12.53;76.40;101772.69;5041189;28;20055;-89
2022/09/23 00:37:39;;;;;;;3.60;3.30;;;;;;;12.52;76.30;101771.00;5041095;28;20163;-89
2022/09/23 00:40:12;;;;;;;3.28;3.00;;;;;;;12.51;76.40;101771.03;5058795;28;20042;-89
2022/09/23 00:42:50;;;;;;;3.22;2.92;;;;;;;12.49;76.41;101766.69;5075963;28;20358;-89
2022/09/23 00:45:19;;;;;;;3.15;2.95;;;;;;;12.49;76.37;101766.69;5024878;28;20264;-89
2022/09/23 00:47:57;;;;;;;3.67;2.65;;;;;;;12.47;76.72;101763.25;5058251;28;20048;-89
2022/09/23 00:50:50;;;;;;;3.15;2.92;;;;;;;12.46;76.74;101764.19;5077003;28;20068;-89
2022/09/23 00:53:28;;;;;;;3.30;3.00;;;;;;;12.45;76.78;101757.19;5079445;28;20024;-89
2022/09/23 00:56:06;;;;;;;3.22;3.03;;;;;;;12.45;76.84;101756.34;5060662;28;20301;-89
2022/09/23 00:58:35;;;;;;;3.10;2.90;;;;;;;12.44;76.50;101759.88;5045358;28;20216;-89
2022/09/23 01:01:06;;;;;;;2.90;2.70;;;;;;;12.44;76.76;101759.88;5061109;28;20028;-89
2022/09/23 01:03:36;;;;;;;2.92;2.70;;;;;;;12.38;76.67;101750.44;5046178;28;20259;-89
2022/09/23 01:06:03;;;;;;;3.00;2.80;;;;;;;12.40;76.69;101756.50;5056377;28;20036;-89
2022/09/23 01:08:35;;;;;;;3.22;3.00;;;;;;;12.40;76.80;101751.22;5060938;28;20113;-89
2022/09/23 01:11:23;;;;;;;2.95;2.75;;;;;;;12.38;76.60;101757.47;5061285;28;20044;-89
2022/09/23 01:14:01;;;;;;;3.30;3.10;;;;;;;12.38;76.89;101760.09;5079152;28;20032;-89
2022/09/23 01:16:54;;;;;;;3.03;2.83;;;;;;;12.38;76.63;101754.84;5076001;28;20086;-89
2022/09/23 01:19:31;;;;;;;3.55;3.25;;;;;;;12.35;76.82;101753.19;5058811;28;20124;-89
2022/09/23 01:22:28;;;;;;;3.60;3.30;;;;;;;12.35;76.78;101744.41;5078516;28;20259;-89
2022/09/23 01:25:21;;;;;;;4.00;3.60;;;;;;;12.33;76.79;101743.63;5074464;28;20109;-89
2022/09/23 01:28:13;;;;;;;3.22;3.03;;;;;;;12.32;76.74;101745.41;5055488;28;20044;-89
2022/09/23 01:31:05;;;;;;;3.97;3.58;;;;;;;12.31;76.83;101745.44;5078149;28;20028;-89
2022/09/23 01:34:06;;;;;;;3.15;2.92;;;;;;;12.29;76.91;101741.09;5057294;28;20288;-89
2022/09/23 01:36:54;;;;;;;3.40;3.10;;;;;;;12.29;76.54;101742.84;5056857;28;20048;-89
2022/09/23 01:39:53;;;;;;;3.30;3.10;;;;;;;12.28;76.82;101738.53;5056358;28;20466;-89
2022/09/23 01:42:50;;;;;;;3.97;3.45;;;;;;;12.27;76.87;101732.41;5058218;28;20068;-89
2022/09/23 01:45:29;;;;;;;3.80;3.53;;;;;;;12.26;76.99;101730.72;5056640;28;20017;-89
2022/09/23 01:48:09;;;;;;;4.43;3.50;;;;;;;12.26;76.63;101724.56;5056932;28;20091;-89
2022/09/23 01:50:56;;;;;;;3.28;3.08;;;;;;;12.24;76.92;101722.03;5056983;28;20028;-89
2022/09/23 01:53:36;;;;;;;3.58;3.28;;;;;;;12.24;76.67;101724.66;5058047;28;20116;-89
2022/09/23 01:56:09;;;;;;;3.80;3.50;;;;;;;12.24;77.14;101721.13;5056800;28;20078;-89
2022/09/23 01:58:49;;;;;;;3.85;3.55;;;;;;;12.22;76.81;101720.34;5038215;28;20072;-89
2022/09/23 02:01:30;;;;;;;4.32;3.60;;;;;;;12.21;76.89;101708.13;5056329;28;20044;-89
2022/09/23 02:04:10;;;;;;;3.42;3.22;;;;;;;12.20;76.80;101715.13;5057778;28;20055;-89
2022/09/23 02:06:42;;;;;;;3.45;3.15;;;;;;;12.19;76.82;101702.09;5039777;28;20052;-89
2022/09/23 02:09:19;;;;;;;3.95;3.75;;;;;;;12.19;77.17;101702.09;5056857;28;20303;-89
2022/09/23 02:11:51;;;;;;;3.50;3.30;;;;;;;12.20;77.05;101709.03;5056791;28;20036;-89
2022/09/23 02:14:31;;;;;;;3.70;3.50;;;;;;;12.17;76.95;101704.75;5056316;28;20374;-89
2022/09/23 02:17:05;;;;;;;3.70;3.47;;;;;;;12.17;77.07;101706.50;5053798;28;20091;-89
2022/09/23 02:20:00;;;;;;;4.07;3.70;;;;;;;12.16;76.94;101700.41;5056885;28;20235;-89
2022/09/23 02:23:06;;;;;;;3.97;3.60;;;;;;;12.16;77.37;101699.53;5055709;28;20052;-89
2022/09/23 02:26:14;;;;;;;3.90;3.60;;;;;;;12.15;77.17;101700.44;5056186;28;20032;-89
2022/09/23 02:29:18;;;;;;;3.72;3.47;;;;;;;12.13;77.22;101700.50;5055721;28;20039;-89
2022/09/23 02:31:49;;;;;;;4.10;3.80;;;;;;;12.11;77.10;101694.44;5022319;28;20040;-89
2022/09/23 02:34:44;;;;;;;3.95;3.67;;;;;;;12.10;77.04;101698.00;5057445;28;20228;-89
2022/09/23 02:37:36;;;;;;;4.25;3.95;;;;;;;12.09;77.16;101691.84;5055750;28;20348;-91
2022/09/23 02:40:07;;;;;;;3.90;3.60;;;;;;;12.08;76.96;101686.69;5057384;28;20029;-91
2022/09/23 02:42:54;;;;;;;4.03;3.70;;;;;;;12.07;77.35;101683.19;5054894;28;20320;-91
2022/09/23 02:45:19;;;;;;;3.50;3.20;;;;;;;12.07;77.14;101682.31;5055628;28;20091;-91
2022/09/23 02:47:51;;;;;;;4.20;3.80;;;;;;;12.04;77.04;101675.44;5056005;28;20037;-91
2022/09/23 02:50:17;;;;;;;4.00;3.70;;;;;;;12.05;77.12;101673.66;5055635;28;20324;-90
2022/09/23 02:52:45;;;;;;;4.00;3.70;;;;;;;12.05;77.15;101671.03;5035614;28;20033;-91
2022/09/23 02:55:14;;;;;;;4.43;4.13;;;;;;;12.03;77.26;101663.19;5019621;28;20240;-91
2022/09/23 02:57:40;;;;;;;4.13;3.83;;;;;;;12.03;77.36;101665.81;5056694;28;20044;-91
2022/09/23 03:00:07;;;;;;;4.40;4.10;;;;;;;12.02;77.28;101665.88;5039912;28;20256;-92
2022/09/23 03:02:40;;;;;;;4.00;3.70;;;;;;;12.02;77.35;101666.72;5044852;28;20040;-92
2022/09/23 03:05:22;;;;;;;3.40;3.20;;;;;;;12.03;77.34;101667.59;5057002;28;20036;-92
2022/09/23 03:07:48;;;;;;;4.70;4.28;;;;;;;12.02;77.52;101664.09;5057108;28;20253;-92
2022/09/23 03:10:41;;;;;;;4.72;4.18;;;;;;;12.01;77.50;101658.91;5055456;28;20366;-92
2022/09/23 03:13:15;;;;;;;4.80;4.40;;;;;;;12.01;77.39;101662.38;5056668;28;20032;-92
2022/09/23 03:15:52;;;;;;;4.68;4.28;;;;;;;12.00;77.47;101660.66;5055514;28;20033;-92
2022/09/23 03:18:30;;;;;;;4.38;4.07;;;;;;;12.00;77.87;101659.81;5055716;28;20281;-91
2022/09/23 03:21:15;;;;;;;5.60;4.05;;;;;;;11.99;77.46;101661.59;5057171;28;20043;-92
2022/09/23 03:23:42;;;;;;;4.90;4.03;;;;;;;11.99;77.64;101660.72;5055001;28;20208;-91
2022/09/23 03:26:13;;;;;;;4.10;3.80;;;;;;;11.98;77.47;101659.00;5071983;28;20037;-92
2022/09/23 03:28:42;;;;;;;4.20;3.90;;;;;;;11.96;77.61;101659.06;5062125;28;20033;-92
2022/09/23 03:31:10;;;;;;;5.13;4.82;;;;;;;11.96;78.03;101661.69;5055418;28;20048;-92
2022/09/23 03:33:38;;;;;;;4.40;4.10;;;;;;;11.96;77.76;101661.69;5038232;28;20364;-92
2022/09/23 03:39:07;;;;;;;4.07;3.78;;;;;;;11.95;77.75;101662.59;5066744;28;20541;-92
2022/09/23 03:41:44;;;;;;;4.63;4.22;;;;;;;11.95;77.92;101662.59;5057927;28;20036;-92
2022/09/23 03:44:10;;;;;;;4.55;4.15;;;;;;;11.94;78.13;101655.63;5046510;28;20113;-91
2022/09/23 03:46:36;;;;;;;5.55;4.65;;;;;;;11.94;78.11;101650.38;5074922;28;20032;-92
2022/09/23 03:49:14;;;;;;;4.85;4.45;;;;;;;11.93;78.38;101645.19;5075921;28;20039;-92
2022/09/23 03:51:40;;;;;;;4.53;4.13;;;;;;;11.92;78.37;101641.69;5058268;28;20044;-92
2022/09/23 03:54:05;;;;;;;4.60;4.20;;;;;;;11.93;78.17;101639.94;5038355;28;20293;-92
2022/09/23 03:56:31;;;;;;;4.65;4.35;;;;;;;11.91;78.30;101626.84;5066499;28;20106;-92
2022/09/23 03:58:56;;;;;;;4.47;4.18;;;;;;;11.92;78.05;101630.34;5049338;28;20055;-92
2022/09/23 04:01:22;;;;;;;4.32;4.00;;;;;;;11.90;78.21;101631.25;5076427;28;20028;-92
2022/09/23 04:03:47;;;;;;;4.50;4.20;;;;;;;11.90;78.17;101625.16;5038516;28;20051;-92
2022/09/23 04:06:13;;;;;;;4.63;4.20;;;;;;;11.90;78.23;101619.91;5038366;28;20107;-92
2022/09/23 04:08:38;;;;;;;4.97;4.57;;;;;;;11.90;78.37;101626.00;5027922;28;20028;-92
2022/09/23 04:11:04;;;;;;;4.28;3.97;;;;;;;11.89;78.57;101619.00;5038399;28;20033;-92
2022/09/23 04:13:30;;;;;;;4.15;3.88;;;;;;;11.89;78.49;101613.75;5038132;28;20036;-92
2022/09/23 04:15:56;;;;;;;5.03;4.65;;;;;;;11.89;78.59;101618.13;5038449;28;20029;-92
2022/09/23 04:18:22;;;;;;;4.47;4.18;;;;;;;11.89;78.72;101610.25;5038302;28;20025;-92
2022/09/23 04:20:47;;;;;;;4.38;4.07;;;;;;;11.88;78.58;101612.03;5072065;28;20025;-92
2022/09/23 04:23:13;;;;;;;4.68;4.28;;;;;;;11.88;78.60;101613.81;5043221;28;20131;-92
2022/09/23 04:25:48;;;;;;;5.47;4.97;;;;;;;11.88;78.87;101617.28;5043080;28;20335;-92
2022/09/23 04:28:13;;;;;;;5.72;4.90;;;;;;;11.88;78.56;101614.66;5025895;28;20298;-92
2022/09/23 04:30:43;;;;;;;5.38;4.88;;;;;;;11.89;78.57;101619.00;5076826;28;20036;-92
2022/09/23 04:33:12;;;;;;;4.55;4.15;;;;;;;11.88;79.08;101616.44;5080117;28;20262;-92
2022/09/23 04:35:39;;;;;;;5.05;4.68;;;;;;;11.87;78.85;101607.69;5061543;28;20232;-92
2022/09/23 04:38:05;;;;;;;11.20;4.53;;;;;;;11.88;79.00;101614.66;5045737;28;20328;-92
2022/09/23 04:40:31;;;;;;;5.88;5.03;;;;;;;11.88;79.02;101611.19;5044925;28;20382;-92
2022/09/23 04:42:57;;;;;;;6.72;5.07;;;;;;;11.89;79.62;101610.25;5062111;28;20100;-92
2022/09/23 04:45:22;;;;;;;4.90;4.43;;;;;;;11.89;79.53;101616.38;5042009;28;20123;-92
2022/09/23 04:47:48;;;;;;;5.10;4.60;;;;;;;11.89;79.65;101605.00;5048570;28;20033;-92
2022/09/23 04:50:13;;;;;;;5.43;4.53;;;;;;;11.89;79.75;101610.25;5044887;28;20044;-92
2022/09/23 04:52:39;;;;;;;6.90;5.10;;;;;;;11.87;79.74;101615.56;5079566;28;20020;-92
2022/09/23 04:55:05;;;;;;;5.35;4.85;;;;;;;11.87;79.68;101604.22;5061619;28;20044;-92
2022/09/23 04:57:30;;;;;;;5.80;4.85;;;;;;;11.88;79.97;101613.81;5061503;28;20032;-92
2022/09/23 04:59:56;;;;;;;5.60;5.10;;;;;;;11.87;79.95;101610.31;5079586;28;20066;-92
2022/09/23 05:02:23;;;;;;;5.13;4.72;;;;;;;11.88;79.82;101613.81;5044866;28;20340;-92
2022/09/23 05:04:49;;;;;;;5.22;4.82;;;;;;;11.87;80.20;101617.34;5058303;28;20032;-92
2022/09/23 05:07:15;;;;;;;5.28;4.88;;;;;;;11.87;79.99;101612.09;5044552;28;20361;-91
2022/09/23 05:09:41;;;;;;;5.25;4.80;;;;;;;11.88;80.04;101619.06;5045047;28;20044;-92
2022/09/23 05:12:06;;;;;;;5.10;4.75;;;;;;;11.86;80.30;101611.25;5057833;28;20048;-92
2022/09/23 05:14:32;;;;;;;5.45;4.90;;;;;;;11.88;79.93;101616.44;5060127;28;20324;-92
2022/09/23 05:16:57;;;;;;;9.75;5.30;;;;;;;11.88;79.96;101622.53;5027574;28;20074;-92
2022/09/23 05:19:22;;;;;;;4.95;4.43;;;;;;;11.88;80.11;101614.66;5060905;28;20040;-92
2022/09/23 05:21:48;;;;;;;10.32;5.05;;;;;;;11.87;80.21;101620.81;5044458;28;20050;-91
2022/09/23 05:24:16;;;;;;;5.32;4.82;;;;;;;11.88;80.27;101621.69;5041823;28;20320;-91
2022/09/23 05:26:42;;;;;;;5.43;4.93;;;;;;;11.88;80.15;101626.94;5056529;28;20024;-92
2022/09/23 05:29:09;;;;;;;9.82;5.30;;;;;;;11.88;80.18;101621.69;5045423;28;20021;-92
2022/09/23 05:31:35;;;;;;;11.82;5.47;;;;;;;11.87;80.62;101620.81;5038075;28;20128;-91
2022/09/23 05:34:03;;;;;;;11.77;6.47;;;;;;;11.87;80.68;101623.44;5027118;28;20032;-92
2022/09/23 05:36:30;;;;;;;6.95;5.43;;;;;;;11.89;80.99;101626.00;5078535;28;20029;-92
2022/09/23 05:38:58;;;;;;;6.72;5.30;;;;;;;11.89;81.00;101628.63;5060003;28;20039;-91
2022/09/23 05:41:24;;;;;;;5.82;5.22;;;;;;;11.89;81.28;101628.63;5027710;28;20339;-91
2022/09/23 05:43:51;;;;;;;7.60;6.90;;;;;;;11.90;81.25;101628.63;5056359;28;20254;-92
2022/09/23 05:46:28;;;;;;;6.47;5.93;;;;;;;11.90;81.25;101628.63;5040919;28;20055;-92
2022/09/23 05:48:58;;;;;;;7.90;6.20;;;;;;;11.92;81.16;101630.34;5073409;28;20033;-92
2022/09/23 05:51:25;;;;;;;7.72;5.43;;;;;;;11.90;81.52;101618.13;5034031;28;20041;-92
2022/09/23 05:53:52;;;;;;;7.25;5.38;;;;;;;11.92;81.59;101625.94;5059436;28;20107;-92
2022/09/23 05:56:20;;;;;;;5.85;5.38;;;;;;;11.93;81.94;101632.91;5057920;28;20028;-92
2022/09/23 05:58:48;;;;;;;6.60;6.10;;;;;;;11.93;81.69;101627.66;5059518;28;20020;-91
2022/09/23 06:01:17;;;;;;;6.88;6.05;;;;;;;11.94;81.76;101626.75;5056791;28;20250;-92
2022/09/23 06:03:47;;;;;;;8.00;6.55;;;;;;;11.95;81.77;101632.84;5071771;28;20032;-92
2022/09/23 06:06:13;;;;;;;6.53;5.95;;;;;;;11.95;81.97;101619.72;5058630;28;20036;-92
2022/09/23 06:08:39;;;;;;;7.00;6.30;;;;;;;11.95;82.30;101624.97;5057514;28;20301;-92
2022/09/23 06:11:06;;;;;;;6.88;6.28;;;;;;;11.95;82.09;101620.59;5041995;28;20025;-92
2022/09/23 06:13:36;;;;;;;7.57;6.90;;;;;;;11.96;82.30;101624.09;5074491;28;20028;-92
2022/09/23 06:16:09;;;;;;;7.22;6.63;;;;;;;11.97;82.34;101624.03;5058650;28;20396;-92
2022/09/23 06:18:38;;;;;;;7.07;6.47;;;;;;;11.96;82.52;101613.59;5076078;28;20075;-92
2022/09/23 06:21:04;;;;;;;6.68;5.72;;;;;;;11.99;82.54;101618.72;5058402;28;20029;-92
2022/09/23 06:23:30;;;;;;;6.68;6.07;;;;;;;12.00;82.07;101615.19;5057948;28;20032;-92
2022/09/23 06:26:03;;;;;;;6.85;6.25;;;;;;;12.00;82.48;101617.81;5057637;28;20058;-92
2022/09/23 06:28:33;;;;;;;7.13;5.55;;;;;;;12.01;82.73;101620.38;5076573;28;20251;-92
2022/09/23 06:31:00;;;;;;;7.00;6.30;;;;;;;12.02;82.82;101624.72;5075988;28;20215;-92
2022/09/23 06:33:26;;;;;;;6.75;6.05;;;;;;;12.03;82.76;101622.97;5057061;28;20297;-92
2022/09/23 06:36:03;;;;;;;7.28;6.57;;;;;;;12.05;82.95;101613.25;5041338;28;20029;-92
2022/09/23 06:38:29;;;;;;;6.72;6.13;;;;;;;12.05;83.10;101608.00;5037312;28;20029;-92
2022/09/23 06:40:57;;;;;;;7.75;6.88;;;;;;;12.06;83.04;101607.09;5050388;28;20025;-92
2022/09/23 06:43:24;;;;;;;6.95;6.25;;;;;;;12.04;83.30;101604.53;5057623;28;20048;-92
2022/09/23 06:45:54;;;;;;;7.68;6.93;;;;;;;12.07;83.48;101607.03;5039715;28;20040;-92
2022/09/23 06:48:19;;;;;;;8.68;7.30;;;;;;;12.08;83.25;101605.28;5056564;28;20075;-92
2022/09/23 06:50:45;;;;;;;7.47;6.70;;;;;;;12.10;83.57;101608.72;5040653;28;20028;-92
2022/09/23 06:53:11;;;;;;;8.65;6.70;;;;;;;12.08;83.56;101600.88;5057775;28;20024;-92
2022/09/23 06:55:37;;;;;;;6.88;6.25;;;;;;;12.12;83.82;101604.25;5039969;28;20443;-92
2022/09/23 06:58:02;;;;;;;10.32;7.35;;;;;;;12.12;83.61;101609.53;5040983;28;20051;-92
2022/09/23 07:00:28;;;;;;;10.55;7.05;;;;;;;12.14;83.93;101609.47;5038954;28;20036;-92
2022/09/23 07:02:53;;;;;;;8.98;6.65;;;;;;;12.15;83.58;101609.41;5030059;28;20315;-92
2022/09/23 07:05:21;;;;;;;6.82;6.20;;;;;;;12.16;83.88;101615.53;5046370;28;20213;-92
2022/09/23 07:07:47;;;;;;;7.15;6.45;;;;;;;12.18;83.75;101613.69;5055493;28;20032;-92
2022/09/23 07:10:12;;;;;;;8.05;6.72;;;;;;;12.18;83.93;101606.66;5055600;28;20036;-92
2022/09/23 07:12:38;;;;;;;12.30;8.60;;;;;;;12.19;84.27;101610.16;5038751;28;20623;-92
2022/09/23 07:15:04;;;;;;;9.23;6.72;;;;;;;12.20;84.35;101609.25;5055657;28;20028;-92
2022/09/23 07:17:29;;;;;;;6.72;6.07;;;;;;;12.22;84.16;101610.88;5038262;28;20320;-92
2022/09/23 07:19:56;;;;;;;9.18;6.38;;;;;;;12.23;84.20;101606.53;5035927;28;20025;-92
2022/09/23 07:22:23;;;;;;;6.80;6.20;;;;;;;12.24;84.35;101610.84;5028620;28;20043;-92
2022/09/23 07:24:50;;;;;;;7.57;6.65;;;;;;;12.25;84.41;101613.41;5039667;28;20374;-92
2022/09/23 07:27:18;;;;;;;6.20;5.70;;;;;;;12.28;84.43;101605.44;5022343;28;20032;-92
2022/09/23 07:29:47;;;;;;;7.60;6.80;;;;;;;12.28;84.24;101608.06;5055425;28;20082;-92
2022/09/23 07:32:13;;;;;;;9.52;6.57;;;;;;;12.30;84.40;101605.38;5073165;28;20059;-92
2022/09/23 07:34:38;;;;;;;10.88;6.35;;;;;;;12.31;84.00;101600.97;5055534;28;20033;-92
2022/09/23 07:37:04;;;;;;;6.78;5.63;;;;;;;12.32;83.85;101605.34;5041138;28;20127;-92
2022/09/23 07:39:29;;;;;;;8.45;6.43;;;;;;;12.34;84.22;101604.34;5055337;28;20074;-92
2022/09/23 07:41:55;;;;;;;10.77;6.28;;;;;;;12.33;84.44;101605.25;5038718;28;20047;-92
2022/09/23 07:44:21;;;;;;;14.45;6.45;;;;;;;12.35;84.37;101600.84;5071881;28;20048;-92
2022/09/23 07:46:48;;;;;;;7.85;6.18;;;;;;;12.37;84.47;101604.25;5038755;28;20040;-92
2022/09/23 07:49:14;;;;;;;7.45;6.30;;;;;;;12.40;84.48;101606.75;5038312;28;20041;-92
2022/09/23 07:51:43;;;;;;;8.23;7.30;;;;;;;12.41;84.51;101611.09;5055310;28;20120;-92
2022/09/23 07:54:13;;;;;;;9.57;6.63;;;;;;;12.42;84.81;101611.97;5072214;28;20055;-92
2022/09/23 07:56:39;;;;;;;10.57;7.03;;;;;;;12.44;85.00;101612.75;5055436;28;20035;-92
2022/09/23 07:59:07;;;;;;;11.70;6.47;;;;;;;12.45;84.71;101612.69;5055064;28;20132;-92
2022/09/23 08:01:41;;;;;;;9.63;6.57;;;;;;;12.46;84.41;101611.81;5071857;28;20023;-92
2022/09/23 08:04:12;;;;;;;9.10;7.32;;;;;;;12.50;84.78;101617.81;5045219;28;20029;-92
2022/09/23 08:06:47;;;;;;;11.60;7.18;;;;;;;12.51;84.39;101613.41;5065633;28;20060;-92
2022/09/23 08:09:13;;;;;;;9.95;7.10;;;;;;;12.54;84.39;101619.41;5053554;28;20047;-92
2022/09/23 08:11:40;;;;;;;15.25;6.78;;;;;;;12.57;84.64;101615.78;5035054;28;20208;-92
2022/09/23 08:14:07;;;;;;;7.85;6.88;;;;;;;12.59;85.02;101619.25;5052318;28;20332;-92
2022/09/23 08:16:33;;;;;;;17.60;7.63;;;;;;;12.61;84.59;101615.63;5032378;28;20024;-92
2022/09/23 08:18:59;;;;;;;15.82;7.50;;;;;;;12.64;85.15;101620.78;5051566;28;20037;-92
2022/09/23 08:21:24;;;;;;;9.32;7.03;;;;;;;12.67;85.13;101614.56;5038202;28;20300;-92
2022/09/23 08:23:50;;;;;;;8.50;6.95;;;;;;;12.69;84.46;101615.34;5021139;28;20048;-91
2022/09/23 08:26:16;;;;;;;12.43;7.03;;;;;;;12.72;84.55;101612.63;5042748;28;20035;-92
2022/09/23 08:28:46;;;;;;;9.95;7.20;;;;;;;12.78;85.06;101619.41;5047859;28;20025;-92
2022/09/23 08:31:12;;;;;;;18.00;7.53;;;;;;;12.82;84.86;101621.00;5030542;28;20020;-92
2022/09/23 08:33:39;;;;;;;11.18;7.05;;;;;;;12.86;85.05;101620.84;5042560;28;20327;-92
2022/09/23 08:36:05;;;;;;;12.27;6.80;;;;;;;12.88;84.53;101612.91;5037513;28;20265;-92
2022/09/23 08:38:31;;;;;;;9.02;6.88;;;;;;;12.92;84.54;101613.63;5067646;28;20082;-92
2022/09/23 08:41:26;;;;;;;13.43;6.70;;;;;;;12.96;84.97;101623.13;5048129;28;20043;-92
2022/09/23 08:44:03;;;;;;;9.40;6.88;;;;;;;12.96;84.92;101618.72;5068499;28;20064;-92
2022/09/23 08:47:16;;;;;;;17.35;6.57;;;;;;;13.00;84.45;101622.06;5052835;28;20021;-92
2022/09/23 08:50:04;;;;;;;11.50;6.43;;;;;;;13.02;84.28;101625.50;5066844;28;20036;-92
2022/09/23 08:52:41;;;;;;;18.98;7.30;;;;;;;13.03;84.61;101627.22;5068617;28;20029;-92
2022/09/23 08:55:12;;;;;;;10.55;6.00;;;;;;;13.09;83.87;101628.75;5066611;28;20060;-92
2022/09/23 08:58:21;;;;;;;13.88;6.60;;;;;;;13.09;83.46;101621.72;5055764;28;20033;-92
2022/09/23 09:01:32;;;;;;;12.98;6.93;;;;;;;13.13;84.08;101623.31;5035445;28;20036;-92
2022/09/23 09:04:02;;;;;;;9.10;5.85;;;;;;;13.17;84.42;101624.94;5073926;28;20295;-92
2022/09/23 09:06:37;;;;;;;11.07;6.43;;;;;;;13.23;84.39;101624.66;5050872;28;20024;-92
2022/09/23 09:09:05;;;;;;;10.35;6.38;;;;;;;13.25;85.29;101625.47;5064773;28;20036;-92
2022/09/23 09:11:34;;;;;;;13.27;6.65;;;;;;;13.30;84.81;101622.66;5058887;28;20028;-92
2022/09/23 09:14:16;;;;;;;12.93;6.30;;;;;;;13.33;84.40;101629.59;5070109;28;20037;-92
2022/09/23 09:17:06;;;;;;;8.23;6.72;;;;;;;13.35;84.51;101626.00;5054716;28;20358;-92
2022/09/23 09:19:56;;;;;;;10.45;6.80;;;;;;;13.39;84.27;101626.75;5053228;28;20032;-92
2022/09/23 09:22:49;;;;;;;20.95;7.35;;;;;;;13.41;84.16;101620.50;5050651;28;20064;-92
2022/09/23 09:25:24;;;;;;;7.68;6.50;;;;;;;13.46;84.19;101625.56;5061059;28;20422;-92
2022/09/23 09:27:51;;;;;;;11.32;5.88;;;;;;;13.48;83.42;101628.13;5073937;28;20035;-92
2022/09/23 09:30:17;;;;;;;10.25;6.47;;;;;;;13.50;83.20;101628.91;5043040;28;20379;-92
2022/09/23 09:33:04;;;;;;;10.27;6.28;;;;;;;13.52;83.06;101620.06;5051342;28;20226;-92
2022/09/23 09:36:00;;;;;;;8.52;6.15;;;;;;;13.54;82.81;101620.84;5045828;28;20040;-92
2022/09/23 09:38:27;;;;;;;10.65;5.93;;;;;;;13.57;83.09;101623.38;5043963;28;20224;-92
2022/09/23 09:40:54;;;;;;;11.38;5.90;;;;;;;13.58;82.85;101619.78;5056438;28;20344;-92
2022/09/23 09:43:23;;;;;;;9.70;7.60;;;;;;;13.60;82.92;101607.44;5050730;28;20020;-92
2022/09/23 09:46:23;;;;;;;9.57;7.60;;;;;;;13.66;83.63;101616.00;5048248;28;20460;-92
2022/09/23 09:48:55;;;;;;;16.00;6.65;;;;;;;13.68;83.92;101607.13;5036405;28;20070;-92
2022/09/23 09:51:23;;;;;;;6.82;5.55;;;;;;;13.71;83.48;101603.50;5047093;28;20251;-92
2022/09/23 09:53:51;;;;;;;14.20;6.93;;;;;;;13.74;84.06;101604.25;5048351;28;20529;-92
2022/09/23 09:56:29;;;;;;;7.85;5.80;;;;;;;13.75;83.51;101598.06;5054710;28;20210;-91
2022/09/23 09:59:00;;;;;;;9.73;6.43;;;;;;;13.80;83.09;101608.38;5047380;28;20031;-92
2022/09/23 10:01:28;;;;;;;14.00;6.20;;;;;;;13.81;83.02;101604.84;5062579;28;20371;-92
2022/09/23 10:03:56;;;;;;;15.93;6.13;;;;;;;13.84;83.04;101594.16;5060757;28;20082;-92
2022/09/23 10:06:25;;;;;;;10.23;5.90;;;;;;;13.86;82.47;101592.34;5054113;28;20067;-92
2022/09/23 10:09:00;;;;;;;7.68;6.13;;;;;;;13.88;82.69;101593.13;5046625;28;20514;-92
2022/09/23 10:11:26;;;;;;;8.95;6.50;;;;;;;13.92;83.08;101599.13;5053275;28;20032;-91
2022/09/23 10:13:59;;;;;;;14.57;6.47;;;;;;;13.94;82.81;101592.88;5022627;28;20039;-92
2022/09/23 10:16:24;;;;;;;9.00;6.43;;;;;;;13.96;82.91;101587.53;5054193;28;20185;-92
2022/09/23 10:18:52;;;;;;;7.80;6.15;;;;;;;13.97;82.68;101590.09;5049580;28;20032;-92
2022/09/23 10:21:21;;;;;;;11.05;6.80;;;;;;;13.99;82.53;101595.31;5079931;28;20397;-92
2022/09/23 10:23:51;;;;;;;13.52;6.75;;;;;;;14.00;82.58;101591.75;5073813;28;20360;-92
2022/09/23 10:26:25;;;;;;;8.60;6.22;;;;;;;14.02;82.73;101588.13;5059420;28;20020;-92
2022/09/23 10:28:58;;;;;;;7.55;6.45;;;;;;;14.04;82.21;101595.94;5063995;28;20028;-92
2022/09/23 10:31:26;;;;;;;7.15;5.65;;;;;;;14.07;82.29;101587.06;5066816;28;20235;-92
2022/09/23 10:33:54;;;;;;;18.95;6.80;;;;;;;14.07;81.90;101582.66;5064706;28;20327;-92
2022/09/23 10:36:20;;;;;;;11.13;6.30;;;;;;;14.09;82.01;101588.72;5053198;28;20071;-92
2022/09/23 10:38:49;;;;;;;7.40;5.93;;;;;;;14.14;82.52;101591.16;5055799;28;20263;-92
2022/09/23 10:48:13;;;;;;;7.65;6.10;;;;;;;14.25;82.59;101590.69;5058644;28;20125;-92
2022/09/23 10:50:46;;;;;;;5.13;4.72;;;;;;;14.28;82.83;101588.78;5062523;28;20116;-92
2022/09/23 10:53:35;;;;;;;11.23;4.93;;;;;;;14.31;82.60;101585.13;5054956;28;20029;-92
2022/09/23 10:56:00;;;;;;;;;;;;;;;14.34;82.44;101577.09;5070481;28;20174;-92
2022/09/23 10:59:13;;;;;;;9.87;5.03;;;;;;;14.37;82.70;101572.56;5051917;28;19958;-91
2022/09/23 11:01:58;;;;;;;8.27;5.53;;;;;;;14.40;82.85;101574.19;5065406;28;20467;-92
2022/09/23 11:04:51;;;;;;;10.93;5.25;;;;;;;14.44;82.76;101577.53;5056348;28;20063;-92
2022/09/23 11:07:43;;;;;;;7.32;5.85;;;;;;;14.47;82.58;101574.78;5043263;28;20074;-91
2022/09/23 11:10:34;;;;;;;10.93;6.20;;;;;;;14.50;82.06;101570.22;5050947;28;20055;-92
2022/09/23 11:13:08;;;;;;;6.80;5.50;;;;;;;14.54;82.45;101578.84;5072283;28;20048;-92
2022/09/23 11:15:55;;;;;;;6.57;4.90;;;;;;;14.58;82.28;101577.78;5070221;28;20070;-92
2022/09/23 11:18:58;;;;;;;9.18;6.28;;;;;;;14.62;82.72;101578.50;5057656;28;20028;-92
2022/09/23 11:21:40;;;;;;;5.35;4.82;;;;;;;14.65;82.56;101573.09;5047623;28;20305;-92
2022/09/23 11:24:35;;;;;;;9.45;5.60;;;;;;;14.67;82.96;101566.81;5055163;28;20047;-92
2022/09/23 11:27:19;;;;;;;9.02;6.15;;;;;;;14.72;82.53;101566.63;5055048;28;20039;-92
2022/09/23 11:30:08;;;;;;;7.07;6.38;;;;;;;14.78;83.10;101568.97;5070814;28;20267;-92
2022/09/23 11:33:14;;;;;;;8.02;6.07;;;;;;;14.82;82.71;101570.53;5051792;28;20343;-92
2022/09/23 11:36:17;;;;;;;9.00;5.43;;;;;;;14.85;82.40;101559.00;5069644;28;20028;-92
2022/09/23 11:38:47;;;;;;;9.82;6.88;;;;;;;14.90;82.74;101567.56;5070807;28;20035;-92
2022/09/23 11:41:53;;;;;;;11.65;6.30;;;;;;;14.96;82.65;101551.44;5070311;28;20153;-92
2022/09/23 11:44:32;;;;;;;6.60;5.55;;;;;;;15.00;82.52;101557.41;4955169;28;20302;-92
2022/09/23 11:47:06;;;;;;;6.72;6.07;;;;;;;15.04;82.45;101554.53;5056416;28;20221;-92
2022/09/23 11:49:55;;;;;;;7.93;7.18;;;;;;;15.07;81.93;101553.56;5057210;28;20029;-92
2022/09/23 11:52:30;;;;;;;8.38;6.93;;;;;;;15.10;82.45;101548.13;5059120;28;20229;-92
2022/09/23 11:55:06;;;;;;;10.75;7.18;;;;;;;15.14;82.25;101552.31;5066488;28;20044;-92
2022/09/23 11:57:46;;;;;;;10.88;6.57;;;;;;;15.17;82.25;101541.59;5067866;28;20098;-92
2022/09/23 12:00:20;;;;;;;7.75;6.38;;;;;;;15.22;82.39;101541.41;5067067;28;20028;-92
2022/09/23 12:03:32;;;;;;;10.05;5.65;;;;;;;15.27;82.58;101534.97;5058842;28;20028;-92